createdAt,value
2023-02-22T00:01:35.294Z,101212.00
2023-02-22T00:04:04.632Z,101217.00
2023-02-22T00:06:31.571Z,101229.00
2023-02-22T00:08:58.756Z,101219.00
2023-02-22T00:11:26.526Z,101212.00
2023-02-22T00:13:57.128Z,101206.00
2023-02-22T00:16:25.443Z,101215.00
2023-02-22T00:18:52.443Z,101215.00
2023-02-22T00:21:19.596Z,101215.00
2023-02-22T00:23:47.550Z,101211.00
2023-02-22T00:26:18.355Z,101215.00
2023-02-22T00:28:52.988Z,101219.00
2023-02-22T00:31:20.954Z,101211.00
2023-02-22T00:33:47.956Z,101213.00
2023-02-22T00:36:15.106Z,101201.00
2023-02-22T00:38:42.285Z,101212.00
2023-02-22T00:41:09.471Z,101207.00
2023-02-22T00:43:36.600Z,101198.00
2023-02-22T00:46:03.906Z,101196.00
2023-02-22T00:48:30.820Z,101203.00
2023-02-22T00:50:57.634Z,101210.00
2023-02-22T00:53:25.330Z,101211.00
2023-02-22T00:55:52.810Z,101206.00
2023-02-22T00:58:20.481Z,101199.00
2023-02-22T01:00:47.659Z,101203.00
2023-02-22T01:03:16.563Z,101198.00
2023-02-22T01:05:43.942Z,101203.00
2023-02-22T01:08:12.533Z,101194.00
2023-02-22T01:10:40.218Z,101195.00
2023-02-22T01:13:12.320Z,101202.00
2023-02-22T01:15:41.759Z,101190.00
2023-02-22T01:18:08.777Z,101197.00
2023-02-22T01:20:36.046Z,101197.00
2023-02-22T01:23:06.569Z,101202.00
2023-02-22T01:25:34.308Z,101205.00
2023-02-22T01:28:02.351Z,101214.00
2023-02-22T01:30:32.989Z,101206.00
2023-02-22T01:33:01.099Z,101199.00
2023-02-22T01:35:30.874Z,101196.00
2023-02-22T01:37:58.819Z,101195.00
2023-02-22T01:40:37.663Z,101191.00
2023-02-22T01:43:27.260Z,101191.00
2023-02-22T01:46:05.315Z,101181.00
2023-02-22T01:48:48.033Z,101186.00
2023-02-22T01:51:20.567Z,101181.00
2023-02-22T01:53:52.431Z,101184.00
2023-02-22T01:56:20.895Z,101180.00
2023-02-22T01:58:54.237Z,101188.00
2023-02-22T02:01:23.168Z,101185.00
2023-02-22T02:03:50.918Z,101183.00
2023-02-22T02:06:18.988Z,101183.00
2023-02-22T02:09:10.734Z,101183.00
2023-02-22T02:11:40.468Z,101176.00
2023-02-22T02:14:09.909Z,101190.00
2023-02-22T02:16:51.869Z,101178.00
2023-02-22T02:19:22.163Z,101182.00
2023-02-22T02:22:17.601Z,101176.00
2023-02-22T02:25:22.755Z,101174.00
2023-02-22T02:28:02.798Z,101172.00
2023-02-22T02:30:50.019Z,101173.00
2023-02-22T02:33:38.859Z,101170.00
2023-02-22T02:36:26.600Z,101177.00
2023-02-22T02:39:30.949Z,101170.00
2023-02-22T02:42:00.123Z,101168.00
2023-02-22T02:44:27.134Z,101161.00
2023-02-22T02:47:01.775Z,101168.00
2023-02-22T02:49:46.007Z,101173.00
2023-02-22T02:52:13.314Z,101172.00
2023-02-22T02:54:40.568Z,101154.00
2023-02-22T02:57:09.427Z,101160.00
2023-02-22T02:59:38.185Z,101157.00
2023-02-22T03:02:07.934Z,101158.00
2023-02-22T03:04:34.676Z,101168.00
2023-02-22T03:07:13.587Z,101154.00
2023-02-22T03:10:13.247Z,101154.00
2023-02-22T03:13:02.699Z,101154.00
2023-02-22T03:15:57.548Z,101151.00
2023-02-22T03:18:53.552Z,101151.00
2023-02-22T03:21:27.167Z,101158.00
2023-02-22T03:24:08.482Z,101147.00
2023-02-22T03:26:41.627Z,101151.00
2023-02-22T03:29:10.547Z,101147.00
2023-02-22T03:31:44.914Z,101139.00
2023-02-22T03:34:27.118Z,101146.00
2023-02-22T03:36:57.911Z,101145.00
2023-02-22T03:39:30.919Z,101134.00
2023-02-22T03:42:04.229Z,101154.00
2023-02-22T03:44:33.004Z,101144.00
2023-02-22T03:47:04.209Z,101148.00
2023-02-22T03:50:17.497Z,101148.00
2023-02-22T03:52:45.337Z,101136.00
2023-02-22T03:55:12.896Z,101137.00
2023-02-22T03:57:43.733Z,101149.00
2023-02-22T04:00:14.917Z,101137.00
2023-02-22T04:02:41.845Z,101142.00
2023-02-22T04:05:09.508Z,101145.00
2023-02-22T04:07:36.347Z,101142.00
2023-02-22T04:10:03.908Z,101142.00
2023-02-22T04:12:30.695Z,101138.00
2023-02-22T04:14:57.551Z,101132.00
2023-02-22T04:17:24.330Z,101137.00
2023-02-22T04:19:51.427Z,101132.00
2023-02-22T04:22:18.405Z,101130.00
2023-02-22T04:24:45.522Z,101140.00
2023-02-22T04:27:12.297Z,101129.00
2023-02-22T04:29:39.084Z,101141.00
2023-02-22T04:32:06.523Z,101137.00
2023-02-22T04:34:33.532Z,101149.00
2023-02-22T04:37:00.309Z,101135.00
2023-02-22T04:39:27.327Z,101131.00
2023-02-22T04:41:54.172Z,101138.00
2023-02-22T04:44:20.977Z,101135.00
2023-02-22T04:46:47.863Z,101146.00
2023-02-22T04:49:14.694Z,101139.00
2023-02-22T04:51:42.483Z,101139.00
2023-02-22T04:54:09.374Z,101137.00
2023-02-22T04:56:36.258Z,101135.00
2023-02-22T04:59:03.126Z,101133.00
2023-02-22T05:01:33.975Z,101136.00
2023-02-22T05:04:05.655Z,101142.00
2023-02-22T05:06:32.562Z,101141.00
2023-02-22T05:08:59.469Z,101144.00
2023-02-22T05:11:26.352Z,101137.00
2023-02-22T05:13:53.656Z,101143.00
2023-02-22T05:16:20.474Z,101137.00
2023-02-22T05:18:47.336Z,101146.00
2023-02-22T05:21:14.260Z,101143.00
2023-02-22T05:23:41.651Z,101144.00
2023-02-22T05:26:10.743Z,101142.00
2023-02-22T05:28:38.566Z,101133.00
2023-02-22T05:31:07.363Z,101125.00
2023-02-22T05:33:34.566Z,101122.00
2023-02-22T05:36:01.445Z,101139.00
2023-02-22T05:38:28.481Z,101138.00
2023-02-22T05:40:55.364Z,101139.00
2023-02-22T05:43:22.197Z,101129.00
2023-02-22T05:45:48.984Z,101126.00
2023-02-22T05:48:15.828Z,101136.00
2023-02-22T05:50:43.969Z,101140.00
2023-02-22T05:53:10.874Z,101133.00
2023-02-22T05:55:37.716Z,101138.00
2023-02-22T05:58:05.964Z,101134.00
2023-02-22T06:00:33.099Z,101128.00
2023-02-22T06:03:05.796Z,101138.00
2023-02-22T06:05:32.823Z,101133.00
2023-02-22T06:08:00.198Z,101138.00
2023-02-22T06:10:33.816Z,101128.00
2023-02-22T06:13:01.551Z,101130.00
2023-02-22T06:15:29.309Z,101135.00
2023-02-22T06:17:56.872Z,101131.00
2023-02-22T06:20:25.470Z,101137.00
2023-02-22T06:22:53.931Z,101132.00
2023-02-22T06:25:24.099Z,101128.00
2023-02-22T06:27:51.000Z,101131.00
2023-02-22T06:30:20.778Z,101135.00
2023-02-22T06:32:47.659Z,101125.00
2023-02-22T06:35:15.417Z,101129.00
2023-02-22T06:37:42.356Z,101123.00
2023-02-22T06:40:11.367Z,101125.00
2023-02-22T06:42:38.939Z,101130.00
2023-02-22T06:45:06.131Z,101126.00
2023-02-22T06:47:32.976Z,101122.00
2023-02-22T06:50:01.306Z,101125.00
2023-02-22T06:52:28.207Z,101115.00
2023-02-22T06:54:55.040Z,101126.00
2023-02-22T06:57:21.834Z,101120.00
2023-02-22T06:59:48.654Z,101126.00
2023-02-22T07:02:15.520Z,101119.00
2023-02-22T07:04:43.529Z,101127.00
2023-02-22T07:07:10.691Z,101116.00
2023-02-22T07:09:37.635Z,101128.00
2023-02-22T07:12:05.748Z,101118.00
2023-02-22T07:14:32.551Z,101131.00
2023-02-22T07:16:59.366Z,101123.00
2023-02-22T07:19:26.181Z,101126.00
2023-02-22T07:21:59.173Z,101134.00
2023-02-22T07:24:28.572Z,101130.00
2023-02-22T07:26:55.539Z,101127.00
2023-02-22T07:29:25.184Z,101132.00
2023-02-22T07:31:52.057Z,101126.00
2023-02-22T07:34:19.041Z,101133.00
2023-02-22T07:36:45.933Z,101139.00
2023-02-22T07:39:12.824Z,101137.00
2023-02-22T07:41:39.746Z,101140.00
2023-02-22T07:44:06.660Z,101138.00
2023-02-22T07:46:34.006Z,101129.00
2023-02-22T07:49:00.901Z,101135.00
2023-02-22T07:51:27.962Z,101136.00
2023-02-22T07:53:54.768Z,101146.00
2023-02-22T07:56:21.654Z,101137.00
2023-02-22T07:58:48.508Z,101146.00
2023-02-22T08:01:15.612Z,101144.00
2023-02-22T08:03:42.588Z,101143.00
2023-02-22T08:06:09.510Z,101143.00
2023-02-22T08:08:36.400Z,101133.00
2023-02-22T08:11:03.577Z,101144.00
2023-02-22T08:13:30.528Z,101146.00
2023-02-22T08:15:57.489Z,101132.00
2023-02-22T08:18:25.544Z,101135.00
2023-02-22T08:20:53.957Z,101135.00
2023-02-22T08:23:22.974Z,101136.00
2023-02-22T08:25:49.864Z,101130.00
2023-02-22T08:28:19.992Z,101122.00
2023-02-22T08:30:46.886Z,101130.00
2023-02-22T08:33:16.758Z,101125.00
2023-02-22T08:35:43.798Z,101132.00
2023-02-22T08:38:23.539Z,101130.00
2023-02-22T08:40:50.660Z,101124.00
2023-02-22T08:43:18.923Z,101130.00
2023-02-22T08:45:46.537Z,101115.00
2023-02-22T08:48:14.215Z,101128.00
2023-02-22T08:50:41.919Z,101120.00
2023-02-22T08:53:10.114Z,101122.00
2023-02-22T08:55:39.128Z,101128.00
2023-02-22T08:58:09.376Z,101121.00
2023-02-22T09:00:39.747Z,101118.00
2023-02-22T09:03:09.262Z,101109.00
2023-02-22T09:05:36.529Z,101113.00
2023-02-22T09:08:03.788Z,101114.00
2023-02-22T09:10:33.007Z,101104.00
2023-02-22T09:13:01.054Z,101103.00
2023-02-22T09:15:28.479Z,101101.00
2023-02-22T09:17:55.845Z,101105.00
2023-02-22T09:20:24.107Z,101087.00
2023-02-22T09:22:51.164Z,101096.00
2023-02-22T09:25:20.571Z,101103.00
2023-02-22T09:27:49.815Z,101103.00
2023-02-22T09:30:26.535Z,101095.00
2023-02-22T09:32:55.076Z,101107.00
2023-02-22T09:35:27.053Z,101093.00
2023-02-22T09:37:59.099Z,101113.00
2023-02-22T09:40:29.935Z,101093.00
2023-02-22T09:43:04.486Z,101101.00
2023-02-22T09:45:44.953Z,101102.00
2023-02-22T09:48:22.128Z,101089.00
2023-02-22T09:50:51.174Z,101110.00
2023-02-22T09:53:21.998Z,101105.00
2023-02-22T09:55:52.020Z,101105.00
2023-02-22T09:58:33.606Z,101102.00
2023-02-22T10:01:27.076Z,101101.00
2023-02-22T10:04:39.121Z,101107.00
2023-02-22T10:07:18.479Z,101092.00
2023-02-22T10:09:48.420Z,101082.00
2023-02-22T10:12:24.348Z,101073.00
2023-02-22T10:15:34.347Z,101074.00
2023-02-22T10:18:42.578Z,101085.00
2023-02-22T10:21:27.710Z,101085.00
2023-02-22T10:24:12.756Z,101084.00
2023-02-22T10:26:44.389Z,101088.00
2023-02-22T10:29:22.136Z,101084.00
2023-02-22T10:31:59.823Z,101083.00
2023-02-22T10:34:30.128Z,101075.00
2023-02-22T10:37:17.282Z,101077.00
2023-02-22T10:39:45.624Z,101085.00
2023-02-22T10:42:12.455Z,101102.00
2023-02-22T10:44:39.832Z,101081.00
2023-02-22T10:47:11.690Z,101088.00
2023-02-22T10:49:43.723Z,101071.00
2023-02-22T10:52:26.652Z,101062.00
2023-02-22T10:55:13.724Z,101061.00
2023-02-22T10:57:42.329Z,101059.00
2023-02-22T11:00:26.377Z,101054.00
2023-02-22T11:02:57.932Z,101056.00
2023-02-22T11:05:37.295Z,101050.00
2023-02-22T11:08:19.198Z,101053.00
2023-02-22T11:10:46.379Z,101045.00
2023-02-22T11:13:34.276Z,101029.00
2023-02-22T11:16:17.541Z,101030.00
2023-02-22T11:18:44.504Z,101032.00
2023-02-22T11:21:13.861Z,101037.00
2023-02-22T11:23:44.955Z,101014.00
2023-02-22T11:26:14.639Z,101015.00
2023-02-22T11:28:50.506Z,101009.00
2023-02-22T11:31:25.787Z,100996.00
2023-02-22T11:34:00.948Z,100992.00
2023-02-22T11:36:40.967Z,100991.00
2023-02-22T11:39:43.724Z,100985.00
2023-02-22T11:42:27.855Z,100996.00
2023-02-22T11:45:13.041Z,100999.00
2023-02-22T11:47:53.897Z,100998.00
2023-02-22T11:50:51.904Z,101002.00
2023-02-22T11:53:34.061Z,100999.00
2023-02-22T11:56:00.819Z,100990.00
2023-02-22T11:59:03.123Z,100987.00
2023-02-22T12:01:48.648Z,101005.00
2023-02-22T12:04:27.662Z,101007.00
2023-02-22T12:07:19.489Z,101002.00
2023-02-22T12:10:05.728Z,100992.00
2023-02-22T12:13:04.873Z,100985.00
2023-02-22T12:15:37.658Z,100979.00
2023-02-22T12:18:22.641Z,100975.00
2023-02-22T12:21:00.215Z,100980.00
2023-02-22T12:23:36.886Z,100977.00
2023-02-22T12:26:08.136Z,100969.00
2023-02-22T12:29:05.180Z,100976.00
2023-02-22T12:31:45.476Z,100972.00
2023-02-22T12:34:21.945Z,100969.00
2023-02-22T12:36:51.846Z,100967.00
2023-02-22T12:39:28.568Z,100976.00
2023-02-22T12:41:56.874Z,100983.00
2023-02-22T12:44:31.556Z,100977.00
2023-02-22T12:47:00.111Z,100978.00
2023-02-22T12:49:39.961Z,100982.00
2023-02-22T12:52:21.991Z,100975.00
2023-02-22T12:55:20.975Z,100984.00
2023-02-22T12:57:52.831Z,100978.00
2023-02-22T13:00:44.712Z,100964.00
2023-02-22T13:03:37.972Z,100965.00
2023-02-22T13:06:26.489Z,100959.00
2023-02-22T13:09:17.929Z,100951.00
2023-02-22T13:12:05.659Z,100964.00
2023-02-22T13:14:41.441Z,100956.00
2023-02-22T13:17:55.608Z,100954.00
2023-02-22T13:20:27.312Z,100952.00
2023-02-22T13:23:33.176Z,100940.00
2023-02-22T13:26:34.848Z,100942.00
2023-02-22T13:29:16.675Z,100941.00
2023-02-22T13:31:53.529Z,100947.00
2023-02-22T13:35:01.968Z,100941.00
2023-02-22T13:37:50.591Z,100942.00
2023-02-22T13:40:54.629Z,100951.00
2023-02-22T13:43:32.482Z,100942.00
2023-02-22T13:46:25.520Z,100943.00
2023-02-22T13:49:26.901Z,100939.00
2023-02-22T13:52:00.781Z,100934.00
2023-02-22T13:54:41.786Z,100928.00
2023-02-22T13:57:54.453Z,100919.00
2023-02-22T14:00:24.388Z,100915.00
2023-02-22T14:03:03.332Z,100917.00
2023-02-22T14:05:39.643Z,100914.00
2023-02-22T14:08:08.067Z,100897.00
2023-02-22T14:10:43.873Z,100912.00
2023-02-22T14:13:11.307Z,100903.00
2023-02-22T14:15:58.136Z,100906.00
2023-02-22T14:18:36.212Z,100916.00
2023-02-22T14:21:20.662Z,100914.00
2023-02-22T14:23:51.642Z,100934.00
2023-02-22T14:26:29.632Z,100924.00
2023-02-22T14:28:57.489Z,100922.00
2023-02-22T14:31:37.258Z,100907.00
2023-02-22T14:34:05.618Z,100910.00
2023-02-22T14:36:34.271Z,100901.00
2023-02-22T14:39:13.046Z,100897.00
2023-02-22T14:41:44.750Z,100894.00
2023-02-22T14:44:12.911Z,100901.00
2023-02-22T14:46:42.263Z,100888.00
2023-02-22T14:49:11.838Z,100888.00
2023-02-22T14:51:43.401Z,100877.00
2023-02-22T14:54:25.588Z,100872.00
2023-02-22T14:56:54.209Z,100871.00
2023-02-22T14:59:25.192Z,100875.00
2023-02-22T15:02:12.853Z,100866.00
2023-02-22T15:04:44.032Z,100863.00
2023-02-22T15:07:22.880Z,100860.00
2023-02-22T15:09:50.047Z,100859.00
2023-02-22T15:12:31.348Z,100854.00
2023-02-22T15:15:21.811Z,100843.00
2023-02-22T15:17:53.573Z,100853.00
2023-02-22T15:20:21.580Z,100848.00
2023-02-22T15:22:49.829Z,100854.00
2023-02-22T15:25:23.964Z,100846.00
2023-02-22T15:27:51.282Z,100847.00
2023-02-22T15:30:21.521Z,100845.00
2023-02-22T15:33:03.060Z,100849.00
2023-02-22T15:35:31.653Z,100850.00
2023-02-22T15:38:05.348Z,100852.00
2023-02-22T15:40:35.669Z,100857.00
2023-02-22T15:43:10.355Z,100849.00
2023-02-22T15:45:43.031Z,100844.00
2023-02-22T15:48:10.830Z,100849.00
2023-02-22T15:50:37.903Z,100850.00
2023-02-22T15:53:09.160Z,100845.00
2023-02-22T15:55:40.522Z,100838.00
2023-02-22T15:58:12.608Z,100833.00
2023-02-22T16:00:42.423Z,100844.00
2023-02-22T16:03:23.125Z,100837.00
2023-02-22T16:05:57.933Z,100833.00
2023-02-22T16:08:52.619Z,100832.00
2023-02-22T16:11:32.218Z,100831.00
2023-02-22T16:14:22.529Z,100831.00
2023-02-22T16:16:49.410Z,100836.00
2023-02-22T16:19:42.331Z,100843.00
2023-02-22T16:22:26.880Z,100833.00
2023-02-22T16:24:54.602Z,100835.00
2023-02-22T16:27:24.376Z,100830.00
2023-02-22T16:30:24.955Z,100826.00
2023-02-22T16:32:59.623Z,100829.00
2023-02-22T16:35:32.031Z,100844.00
2023-02-22T16:38:03.367Z,100845.00
2023-02-22T16:40:39.624Z,100845.00
2023-02-22T16:43:08.409Z,100844.00
2023-02-22T16:45:36.068Z,100849.00
2023-02-22T16:48:13.860Z,100844.00
2023-02-22T16:50:40.779Z,100844.00
2023-02-22T16:53:07.599Z,100846.00
2023-02-22T16:55:36.578Z,100849.00
2023-02-22T16:58:04.136Z,100850.00
2023-02-22T17:00:39.722Z,100851.00
2023-02-22T17:03:06.630Z,100854.00
2023-02-22T17:05:38.830Z,100853.00
2023-02-22T17:08:06.113Z,100859.00
2023-02-22T17:10:34.133Z,100866.00
2023-02-22T17:13:12.828Z,100850.00
2023-02-22T17:15:47.186Z,100855.00
2023-02-22T17:18:17.068Z,100855.00
2023-02-22T17:20:44.996Z,100859.00
2023-02-22T17:23:12.414Z,100849.00
2023-02-22T17:25:42.002Z,100856.00
2023-02-22T17:28:09.519Z,100846.00
2023-02-22T17:30:36.839Z,100861.00
2023-02-22T17:33:06.409Z,100869.00
2023-02-22T17:35:36.943Z,100878.00
2023-02-22T17:38:06.298Z,100868.00
2023-02-22T17:40:35.301Z,100879.00
2023-02-22T17:43:02.721Z,100885.00
2023-02-22T17:45:30.203Z,100870.00
2023-02-22T17:47:59.174Z,100883.00
2023-02-22T17:50:26.916Z,100869.00
2023-02-22T17:52:53.904Z,100868.00
2023-02-22T17:55:21.988Z,100873.00
2023-02-22T17:57:56.874Z,100881.00
2023-02-22T18:00:34.827Z,100878.00
2023-02-22T18:03:05.947Z,100883.00
2023-02-22T18:05:38.432Z,100881.00
2023-02-22T18:08:05.271Z,100886.00
2023-02-22T18:10:32.376Z,100877.00
2023-02-22T18:13:02.003Z,100878.00
2023-02-22T18:15:29.537Z,100880.00
2023-02-22T18:17:56.986Z,100877.00
2023-02-22T18:20:31.175Z,100880.00
2023-02-22T18:22:59.256Z,100876.00
2023-02-22T18:25:26.620Z,100870.00
2023-02-22T18:27:55.015Z,100862.00
2023-02-22T18:30:22.146Z,100875.00
2023-02-22T18:32:49.010Z,100868.00
2023-02-22T18:35:15.864Z,100858.00
2023-02-22T18:37:44.208Z,100862.00
2023-02-22T18:40:11.335Z,100862.00
2023-02-22T18:42:39.177Z,100864.00
2023-02-22T18:45:07.337Z,100866.00
2023-02-22T18:47:42.303Z,100866.00
2023-02-22T18:50:10.808Z,100871.00
2023-02-22T18:52:46.509Z,100853.00
2023-02-22T18:55:15.209Z,100853.00
2023-02-22T18:57:42.126Z,100858.00
2023-02-22T19:00:10.898Z,100851.00
2023-02-22T19:02:37.804Z,100847.00
2023-02-22T19:05:06.440Z,100859.00
2023-02-22T19:07:34.196Z,100845.00
2023-02-22T19:10:02.482Z,100859.00
2023-02-22T19:12:31.384Z,100847.00
2023-02-22T19:14:59.379Z,100861.00
2023-02-22T19:17:28.563Z,100852.00
2023-02-22T19:19:55.903Z,100851.00
2023-02-22T19:22:25.953Z,100839.00
2023-02-22T19:24:54.258Z,100845.00
2023-02-22T19:27:22.126Z,100854.00
2023-02-22T19:29:49.572Z,100844.00
2023-02-22T19:32:17.570Z,100846.00
2023-02-22T19:34:44.703Z,100844.00
2023-02-22T19:37:13.239Z,100843.00
2023-02-22T19:39:42.238Z,100843.00
2023-02-22T19:42:10.237Z,100826.00
2023-02-22T19:44:37.408Z,100831.00
2023-02-22T19:47:08.997Z,100826.00
2023-02-22T19:49:41.229Z,100835.00
2023-02-22T19:52:08.279Z,100827.00
2023-02-22T19:54:35.106Z,100828.00
2023-02-22T19:57:02.199Z,100828.00
2023-02-22T19:59:29.144Z,100846.00
2023-02-22T20:01:56.402Z,100834.00
2023-02-22T20:04:24.254Z,100833.00
2023-02-22T20:06:59.850Z,100847.00
2023-02-22T20:09:34.039Z,100838.00
2023-02-22T20:12:00.912Z,100831.00
2023-02-22T20:14:28.686Z,100844.00
2023-02-22T20:16:56.546Z,100833.00
2023-02-22T20:19:24.324Z,100845.00
2023-02-22T20:21:52.366Z,100844.00
2023-02-22T20:24:19.303Z,100843.00
2023-02-22T20:26:47.340Z,100837.00
2023-02-22T20:29:14.925Z,100839.00
2023-02-22T20:31:42.605Z,100829.00
2023-02-22T20:34:10.607Z,100823.00
2023-02-22T20:36:39.683Z,100832.00
2023-02-22T20:39:07.519Z,100826.00
2023-02-22T20:41:35.865Z,100832.00
2023-02-22T20:44:03.382Z,100825.00
2023-02-22T20:46:31.691Z,100824.00
2023-02-22T20:49:00.292Z,100830.00
2023-02-22T20:51:28.300Z,100820.00
2023-02-22T20:53:57.463Z,100825.00
2023-02-22T20:56:24.759Z,100816.00
2023-02-22T20:58:51.725Z,100819.00
2023-02-22T21:01:20.567Z,100809.00
2023-02-22T21:03:48.105Z,100818.00
2023-02-22T21:06:18.019Z,100805.00
2023-02-22T21:08:49.178Z,100807.00
2023-02-22T21:11:18.426Z,100809.00
2023-02-22T21:13:45.518Z,100823.00
2023-02-22T21:16:18.532Z,100804.00
2023-02-22T21:18:45.503Z,100806.00
2023-02-22T21:21:12.833Z,100797.00
2023-02-22T21:23:40.614Z,100788.00
2023-02-22T21:26:13.356Z,100792.00
2023-02-22T21:28:50.879Z,100793.00
2023-02-22T21:31:20.513Z,100804.00
2023-02-22T21:33:52.628Z,100790.00
2023-02-22T21:36:20.672Z,100791.00
2023-02-22T21:38:53.309Z,100789.00
2023-02-22T21:41:21.939Z,100780.00
2023-02-22T21:43:50.615Z,100778.00
2023-02-22T21:46:18.001Z,100775.00
2023-02-22T21:48:48.535Z,100772.00
2023-02-22T21:51:25.320Z,100777.00
2023-02-22T21:53:54.445Z,100784.00
2023-02-22T21:56:27.624Z,100775.00
2023-02-22T21:58:59.494Z,100777.00
2023-02-22T22:02:02.332Z,100773.00
2023-02-22T22:14:47.066Z,100777.00
2023-02-22T22:17:26.930Z,100786.00
2023-02-22T22:23:29.521Z,100790.00
2023-02-22T22:34:00.232Z,100791.00
2023-02-22T22:40:41.898Z,100797.00
2023-02-22T22:43:39.057Z,100793.00
2023-02-22T22:46:19.284Z,100797.00
2023-02-22T22:49:04.452Z,100802.00
2023-02-22T22:51:53.114Z,100790.00
2023-02-22T22:57:40.890Z,100777.00
2023-02-22T23:04:31.705Z,100786.00
2023-02-22T23:17:45.651Z,100780.00
2023-02-22T23:31:50.056Z,100787.00
2023-02-22T23:39:00.823Z,100784.00
2023-02-22T23:48:49.037Z,100776.00
2023-02-22T23:52:15.354Z,100774.00
2023-02-22T23:55:12.867Z,100783.00
